createdAt,value
2023-04-15T00:02:00.530Z,6.00
2023-04-15T00:04:28.598Z,6.00
2023-04-15T00:06:56.047Z,5.90
2023-04-15T00:09:23.671Z,5.90
2023-04-15T00:11:51.614Z,5.90
2023-04-15T00:14:19.138Z,5.80
2023-04-15T00:16:46.664Z,5.70
2023-04-15T00:19:14.320Z,5.80
2023-04-15T00:21:41.745Z,5.80
2023-04-15T00:24:09.420Z,5.70
2023-04-15T00:26:37.388Z,5.80
2023-04-15T00:29:04.880Z,5.70
2023-04-15T00:31:32.475Z,5.60
2023-04-15T00:34:00.105Z,5.60
2023-04-15T00:36:28.071Z,5.50
2023-04-15T00:38:55.432Z,5.60
2023-04-15T00:41:23.596Z,5.60
2023-04-15T00:43:51.248Z,5.60
2023-04-15T00:46:18.846Z,5.40
2023-04-15T00:48:46.258Z,5.40
2023-04-15T00:51:14.841Z,5.60
2023-04-15T00:53:42.337Z,5.50
2023-04-15T00:56:09.892Z,5.60
2023-04-15T00:58:37.580Z,5.60
2023-04-15T01:01:05.371Z,5.50
2023-04-15T01:03:33.028Z,5.50
2023-04-15T01:06:03.769Z,5.40
2023-04-15T01:08:32.069Z,5.30
2023-04-15T01:11:00.201Z,5.30
2023-04-15T01:13:27.694Z,5.20
2023-04-15T01:15:55.053Z,5.10
2023-04-15T01:18:22.474Z,5.00
2023-04-15T01:20:49.987Z,4.90
2023-04-15T01:23:17.596Z,4.90
2023-04-15T01:25:45.362Z,4.80
2023-04-15T01:28:12.496Z,4.80
2023-04-15T01:30:40.102Z,4.30
2023-04-15T01:33:07.650Z,4.30
2023-04-15T01:35:36.547Z,4.20
2023-04-15T01:38:08.733Z,4.20
2023-04-15T01:40:36.186Z,4.10
2023-04-15T01:43:04.222Z,3.90
2023-04-15T01:45:31.419Z,3.70
2023-04-15T01:47:58.788Z,3.80
2023-04-15T01:50:27.620Z,3.90
2023-04-15T01:52:55.004Z,4.00
2023-04-15T01:55:22.569Z,4.00
2023-04-15T01:57:49.915Z,4.00
2023-04-15T02:00:17.935Z,4.10
2023-04-15T02:02:45.435Z,4.00
2023-04-15T02:05:13.140Z,4.00
2023-04-15T02:07:40.673Z,3.90
2023-04-15T02:10:08.073Z,3.70
2023-04-15T02:12:35.246Z,3.70
2023-04-15T02:15:02.832Z,3.60
2023-04-15T02:17:30.326Z,3.70
2023-04-15T02:19:57.845Z,3.80
2023-04-15T02:22:25.199Z,3.80
2023-04-15T02:24:52.507Z,3.80
2023-04-15T02:27:19.807Z,3.80
2023-04-15T02:29:47.229Z,3.80
2023-04-15T02:32:14.557Z,3.70
2023-04-15T02:34:42.945Z,3.70
2023-04-15T02:37:11.674Z,3.80
2023-04-15T02:39:39.278Z,3.90
2023-04-15T02:42:06.680Z,4.00
2023-04-15T02:44:35.490Z,4.00
2023-04-15T02:47:03.713Z,3.90
2023-04-15T02:49:31.193Z,3.90
2023-04-15T02:52:00.311Z,4.00
2023-04-15T02:54:30.725Z,3.90
2023-04-15T02:56:58.384Z,3.90
2023-04-15T02:59:26.456Z,3.70
2023-04-15T03:01:53.910Z,3.70
2023-04-15T03:04:21.671Z,3.70
2023-04-15T03:06:49.183Z,3.60
2023-04-15T03:09:16.988Z,3.50
2023-04-15T03:11:44.382Z,3.60
2023-04-15T03:14:12.321Z,3.50
2023-04-15T03:16:39.705Z,3.50
2023-04-15T03:19:06.979Z,3.50
2023-04-15T03:21:34.261Z,3.60
2023-04-15T03:24:01.968Z,3.60
2023-04-15T03:26:30.598Z,3.50
2023-04-15T03:28:58.108Z,3.50
2023-04-15T03:31:25.733Z,3.60
2023-04-15T03:33:53.251Z,3.60
2023-04-15T03:36:20.678Z,3.60
2023-04-15T03:38:49.623Z,3.60
2023-04-15T03:41:16.988Z,3.50
2023-04-15T03:43:44.422Z,3.50
2023-04-15T03:46:11.814Z,3.50
2023-04-15T03:48:39.282Z,3.50
2023-04-15T03:51:06.727Z,3.60
2023-04-15T03:53:34.031Z,3.50
2023-04-15T03:56:02.134Z,3.70
2023-04-15T03:58:29.558Z,3.60
2023-04-15T04:00:57.474Z,3.60
2023-04-15T04:03:25.001Z,3.60
2023-04-15T04:05:52.472Z,3.70
2023-04-15T04:08:20.600Z,3.60
2023-04-15T04:10:47.784Z,3.60
2023-04-15T04:13:15.262Z,3.70
2023-04-15T04:15:42.985Z,3.80
2023-04-15T04:18:10.454Z,3.70
2023-04-15T04:20:37.629Z,3.80
2023-04-15T04:23:04.780Z,3.80
2023-04-15T04:25:32.599Z,3.80
2023-04-15T04:28:00.228Z,3.70
2023-04-15T04:30:27.657Z,3.60
2023-04-15T04:32:55.083Z,3.70
2023-04-15T04:35:23.019Z,3.90
2023-04-15T04:37:51.108Z,3.80
2023-04-15T04:40:18.637Z,3.70
2023-04-15T04:42:46.346Z,3.80
2023-04-15T04:45:13.919Z,3.80
2023-04-15T04:47:41.531Z,3.80
2023-04-15T04:50:09.339Z,3.90
2023-04-15T04:52:37.197Z,4.00
2023-04-15T04:55:04.989Z,4.00
2023-04-15T04:57:32.384Z,4.10
2023-04-15T05:00:00.144Z,4.10
2023-04-15T05:02:27.824Z,4.20
2023-04-15T05:04:56.997Z,4.00
2023-04-15T05:07:24.167Z,4.10
2023-04-15T05:09:51.830Z,4.20
2023-04-15T05:12:19.146Z,4.30
2023-04-15T05:14:47.074Z,4.30
2023-04-15T05:17:14.713Z,4.10
2023-04-15T05:19:42.029Z,4.20
2023-04-15T05:22:09.410Z,4.30
2023-04-15T05:24:36.748Z,4.30
2023-04-15T05:27:03.977Z,4.20
2023-04-15T05:29:31.629Z,4.30
2023-04-15T05:31:58.990Z,4.30
2023-04-15T05:34:26.457Z,4.30
2023-04-15T05:36:53.951Z,4.30
2023-04-15T05:39:21.881Z,4.50
2023-04-15T05:41:49.066Z,4.40
2023-04-15T05:44:16.430Z,4.40
2023-04-15T05:46:44.065Z,4.50
2023-04-15T05:49:11.359Z,4.60
2023-04-15T05:51:39.045Z,4.50
2023-04-15T05:54:07.131Z,4.70
2023-04-15T05:56:34.489Z,4.50
2023-04-15T05:59:02.353Z,4.50
2023-04-15T06:01:30.240Z,4.60
2023-04-15T06:03:57.739Z,4.40
2023-04-15T06:06:25.393Z,4.60
2023-04-15T06:08:52.763Z,4.50
2023-04-15T06:11:22.284Z,4.60
2023-04-15T06:13:49.587Z,4.60
2023-04-15T06:16:17.005Z,4.60
2023-04-15T06:18:44.589Z,4.60
2023-04-15T06:21:11.882Z,4.70
2023-04-15T06:23:41.508Z,4.60
2023-04-15T06:26:09.032Z,4.60
2023-04-15T06:28:36.628Z,4.60
2023-04-15T06:31:04.209Z,4.60
2023-04-15T06:33:32.122Z,4.70
2023-04-15T06:35:59.419Z,4.80
2023-04-15T06:38:26.863Z,4.90
2023-04-15T06:40:54.212Z,4.90
2023-04-15T06:43:21.743Z,4.80
2023-04-15T06:45:49.100Z,4.90
2023-04-15T06:48:16.900Z,4.70
2023-04-15T06:50:44.403Z,4.80
2023-04-15T06:53:11.835Z,4.90
2023-04-15T06:55:39.145Z,4.80
2023-04-15T06:58:06.668Z,4.80
2023-04-15T07:00:34.577Z,4.90
2023-04-15T07:03:04.874Z,5.00
2023-04-15T07:05:32.967Z,5.00
2023-04-15T07:08:00.610Z,5.00
2023-04-15T07:10:27.901Z,5.10
2023-04-15T07:12:55.393Z,5.10
2023-04-15T07:15:23.877Z,5.00
2023-04-15T07:17:51.668Z,5.10
2023-04-15T07:20:19.055Z,4.90
2023-04-15T07:22:46.664Z,5.00
2023-04-15T07:25:14.040Z,5.10
2023-04-15T07:27:42.081Z,5.00
2023-04-15T07:30:11.082Z,5.20
2023-04-15T07:32:38.938Z,5.40
2023-04-15T07:35:06.307Z,5.40
2023-04-15T07:37:34.019Z,5.40
2023-04-15T07:40:01.418Z,5.20
2023-04-15T07:42:29.663Z,5.20
2023-04-15T07:44:57.645Z,5.20
2023-04-15T07:47:24.900Z,5.40
2023-04-15T07:49:52.288Z,5.30
2023-04-15T07:52:19.738Z,5.30
2023-04-15T07:54:47.121Z,5.30
2023-04-15T07:57:14.737Z,5.30
2023-04-15T07:59:42.281Z,5.30
2023-04-15T08:02:10.285Z,5.40
2023-04-15T08:04:38.202Z,5.20
2023-04-15T08:07:06.380Z,5.30
2023-04-15T08:09:33.802Z,5.30
2023-04-15T08:12:01.378Z,5.40
2023-04-15T08:14:29.398Z,5.50
2023-04-15T08:16:56.753Z,5.60
2023-04-15T08:19:24.859Z,5.50
2023-04-15T08:21:52.334Z,5.40
2023-04-15T08:24:20.116Z,5.40
2023-04-15T08:26:47.507Z,5.40
2023-04-15T08:29:15.144Z,5.50
2023-04-15T08:31:42.690Z,5.40
2023-04-15T08:34:10.667Z,5.50
2023-04-15T08:36:38.276Z,5.60
2023-04-15T08:39:05.674Z,5.60
2023-04-15T08:41:48.416Z,5.60
2023-04-15T08:44:16.282Z,5.50
2023-04-15T08:46:43.554Z,5.50
2023-04-15T08:49:12.904Z,5.60
2023-04-15T08:51:43.804Z,5.40
2023-04-15T08:54:11.285Z,5.60
2023-04-15T08:56:39.470Z,5.50
2023-04-15T08:59:07.405Z,5.60
2023-04-15T09:01:34.759Z,5.60
2023-04-15T09:04:03.292Z,5.60
2023-04-15T09:06:30.786Z,5.60
2023-04-15T09:08:58.217Z,5.60
2023-04-15T09:11:26.068Z,5.70
2023-04-15T09:13:53.458Z,5.60
2023-04-15T09:16:20.878Z,5.70
2023-04-15T09:18:48.429Z,5.70
2023-04-15T09:21:16.947Z,5.60
2023-04-15T09:23:58.411Z,5.80
2023-04-15T09:26:36.058Z,5.70
2023-04-15T09:29:07.863Z,5.70
2023-04-15T09:31:35.878Z,5.70
2023-04-15T09:34:03.436Z,5.60
2023-04-15T09:36:31.078Z,5.70
2023-04-15T09:38:59.398Z,5.70
2023-04-15T09:41:27.340Z,5.80
2023-04-15T09:43:54.777Z,5.80
2023-04-15T09:46:22.308Z,5.60
2023-04-15T09:49:08.790Z,5.60
2023-04-15T09:51:36.307Z,5.60
2023-04-15T09:54:03.801Z,5.70
2023-04-15T09:56:38.927Z,5.70
2023-04-15T09:59:06.500Z,5.60
2023-04-15T10:01:34.303Z,5.70
2023-04-15T10:04:04.301Z,5.70
2023-04-15T10:06:32.084Z,5.70
2023-04-15T10:08:59.482Z,5.60
2023-04-15T10:11:30.401Z,5.70
2023-04-15T10:13:58.875Z,5.80
2023-04-15T10:16:29.004Z,5.80
2023-04-15T10:18:57.186Z,5.70
2023-04-15T10:21:25.121Z,5.80
2023-04-15T10:23:52.526Z,5.80
2023-04-15T10:26:20.007Z,5.80
2023-04-15T10:28:50.308Z,5.80
2023-04-15T10:31:17.859Z,5.90
2023-04-15T10:33:45.130Z,5.80
2023-04-15T10:36:12.956Z,5.90
2023-04-15T10:38:47.240Z,6.00
2023-04-15T10:41:34.896Z,6.10
2023-04-15T10:44:05.673Z,6.10
2023-04-15T10:46:37.856Z,6.10
2023-04-15T10:49:18.583Z,6.20
2023-04-15T10:51:48.016Z,6.20
2023-04-15T10:54:16.770Z,6.10
2023-04-15T10:56:47.084Z,6.20
2023-04-15T10:59:14.422Z,6.20
2023-04-15T11:01:54.780Z,6.30
2023-04-15T11:04:59.474Z,6.30
2023-04-15T11:07:40.879Z,6.30
2023-04-15T11:10:14.591Z,6.30
2023-04-15T11:12:42.149Z,6.40
2023-04-15T11:15:32.211Z,6.40
2023-04-15T11:18:08.872Z,6.30
2023-04-15T11:20:36.663Z,6.30
2023-04-15T11:23:14.442Z,6.40
2023-04-15T11:25:44.223Z,6.50
2023-04-15T11:28:12.546Z,6.30
2023-04-15T11:30:40.564Z,6.30
2023-04-15T11:33:09.505Z,6.40
2023-04-15T11:35:37.111Z,6.40
2023-04-15T11:38:20.197Z,6.40
2023-04-15T11:40:47.554Z,6.50
2023-04-15T11:43:16.257Z,6.60
2023-04-15T11:45:56.885Z,6.70
2023-04-15T11:48:27.036Z,6.80
2023-04-15T11:50:59.270Z,6.70
2023-04-15T11:53:37.680Z,6.50
2023-04-15T11:56:05.401Z,6.60
2023-04-15T11:58:34.277Z,6.50
2023-04-15T12:01:01.812Z,6.60
2023-04-15T12:03:47.674Z,6.60
2023-04-15T12:06:21.754Z,6.70
2023-04-15T12:09:07.422Z,6.70
2023-04-15T12:11:38.907Z,6.70
2023-04-15T12:14:40.899Z,6.60
2023-04-15T12:17:08.346Z,6.50
2023-04-15T12:19:36.233Z,6.60
2023-04-15T12:22:05.652Z,6.80
2023-04-15T12:24:33.866Z,6.80
2023-04-15T12:27:08.139Z,6.70
2023-04-15T12:29:37.008Z,6.80
2023-04-15T12:32:11.665Z,6.90
2023-04-15T12:34:43.485Z,6.90
2023-04-15T12:37:12.575Z,7.00
2023-04-15T12:39:41.534Z,7.10
2023-04-15T12:42:09.245Z,7.00
2023-04-15T12:44:36.875Z,6.90
2023-04-15T12:47:14.871Z,7.00
2023-04-15T12:49:42.480Z,7.10
2023-04-15T12:52:09.971Z,7.10
2023-04-15T12:54:37.672Z,7.10
2023-04-15T12:57:07.266Z,7.00
2023-04-15T12:59:35.776Z,6.90
2023-04-15T13:02:04.101Z,7.00
2023-04-15T13:04:32.258Z,7.00
2023-04-15T13:07:00.006Z,7.10
2023-04-15T13:09:27.333Z,7.10
2023-04-15T13:11:54.889Z,7.20
2023-04-15T13:14:22.376Z,7.20
2023-04-15T13:16:49.756Z,7.00
2023-04-15T13:19:17.221Z,7.10
2023-04-15T13:21:44.527Z,7.20
2023-04-15T13:24:12.214Z,7.00
2023-04-15T13:26:39.625Z,7.00
2023-04-15T13:29:07.068Z,7.10
2023-04-15T13:31:34.849Z,7.10
2023-04-15T13:34:02.476Z,7.10
2023-04-15T13:36:30.141Z,7.10
2023-04-15T13:38:58.025Z,7.20
2023-04-15T13:41:26.718Z,7.20
2023-04-15T13:43:54.039Z,7.20
2023-04-15T13:46:21.437Z,7.30
2023-04-15T13:48:49.031Z,7.30
2023-04-15T13:51:16.462Z,7.40
2023-04-15T13:53:43.871Z,7.60
2023-04-15T13:56:11.235Z,7.60
2023-04-15T13:58:38.827Z,7.50
2023-04-15T14:01:07.327Z,7.40
2023-04-15T14:03:38.450Z,7.60
2023-04-15T14:06:06.750Z,7.60
2023-04-15T14:08:34.109Z,7.60
2023-04-15T14:11:01.514Z,7.70
2023-04-15T14:13:29.046Z,7.60
2023-04-15T14:15:57.604Z,7.60
2023-04-15T14:18:25.044Z,7.70
2023-04-15T14:20:52.734Z,7.70
2023-04-15T14:23:20.358Z,7.50
2023-04-15T14:25:48.496Z,7.40
2023-04-15T14:28:16.465Z,7.60
2023-04-15T14:30:44.025Z,7.60
2023-04-15T14:33:11.489Z,7.70
2023-04-15T14:35:39.471Z,7.70
2023-04-15T14:38:11.142Z,7.60
2023-04-15T14:40:39.010Z,7.50
2023-04-15T14:43:06.232Z,7.50
2023-04-15T14:45:33.616Z,7.60
2023-04-15T14:48:01.980Z,7.50
2023-04-15T14:50:29.395Z,7.60
2023-04-15T14:52:56.828Z,7.50
2023-04-15T14:55:24.130Z,7.60
2023-04-15T14:57:51.566Z,7.70
2023-04-15T15:00:18.999Z,7.70
2023-04-15T15:02:47.750Z,7.70
2023-04-15T15:05:15.425Z,7.80
2023-04-15T15:07:43.225Z,7.80
2023-04-15T15:10:10.549Z,7.80
2023-04-15T15:12:37.809Z,7.70
2023-04-15T15:15:15.784Z,7.60
2023-04-15T15:17:52.717Z,7.70
2023-04-15T15:20:20.426Z,7.70
2023-04-15T15:22:48.056Z,7.60
2023-04-15T15:25:15.331Z,7.60
2023-04-15T15:27:42.810Z,7.60
2023-04-15T15:30:11.005Z,7.60
2023-04-15T15:32:42.145Z,7.40
2023-04-15T15:35:10.097Z,7.20
2023-04-15T15:37:37.632Z,7.10
2023-04-15T15:40:05.720Z,6.90
2023-04-15T15:42:33.257Z,6.70
2023-04-15T15:45:01.224Z,6.60
2023-04-15T15:47:29.051Z,6.60
2023-04-15T15:49:56.322Z,6.60
2023-04-15T15:52:24.068Z,6.70
2023-04-15T15:54:51.579Z,6.60
2023-04-15T15:57:19.106Z,6.60
2023-04-15T15:59:46.851Z,6.60
2023-04-15T16:02:14.809Z,6.70
2023-04-15T16:04:43.460Z,6.60
2023-04-15T16:07:12.224Z,6.50
2023-04-15T16:09:41.610Z,6.60
2023-04-15T16:12:09.106Z,6.70
2023-04-15T16:14:36.902Z,6.70
2023-04-15T16:17:04.294Z,6.80
2023-04-15T16:19:31.714Z,6.80
2023-04-15T16:22:00.241Z,6.70
2023-04-15T16:24:28.181Z,6.80
2023-04-15T16:26:57.143Z,6.60
2023-04-15T16:29:24.506Z,6.60
2023-04-15T16:31:52.039Z,6.70
2023-04-15T16:34:20.310Z,6.60
2023-04-15T16:36:47.645Z,6.70
2023-04-15T16:39:15.106Z,6.60
2023-04-15T16:41:43.124Z,6.70
2023-04-15T16:44:11.257Z,6.80
2023-04-15T16:46:40.795Z,6.80
2023-04-15T16:49:08.521Z,6.80
2023-04-15T16:51:36.184Z,6.80
2023-04-15T16:54:03.448Z,6.80
2023-04-15T16:56:31.031Z,6.70
2023-04-15T16:58:58.305Z,6.70
2023-04-15T17:01:25.848Z,6.70
2023-04-15T17:03:56.002Z,6.80
2023-04-15T17:06:23.978Z,6.60
2023-04-15T17:08:51.984Z,6.60
2023-04-15T17:11:19.978Z,6.70
2023-04-15T17:13:47.642Z,6.80
2023-04-15T17:16:15.203Z,6.80
2023-04-15T17:18:42.832Z,6.80
2023-04-15T17:21:10.251Z,6.70
2023-04-15T17:23:37.568Z,6.70
2023-04-15T17:26:04.924Z,6.70
2023-04-15T17:28:32.106Z,6.60
2023-04-15T17:30:59.451Z,6.60
2023-04-15T17:33:59.879Z,6.70
2023-04-15T17:36:14.746Z,6.50
2023-04-15T17:38:42.368Z,6.60
2023-04-15T17:41:09.892Z,6.70
2023-04-15T17:43:37.479Z,6.60
2023-04-15T17:46:06.637Z,6.40
2023-04-15T17:48:34.616Z,6.40
2023-04-15T17:51:01.919Z,6.40
2023-04-15T17:53:29.435Z,6.40
2023-04-15T17:55:57.795Z,6.40
2023-04-15T17:58:26.121Z,6.30
2023-04-15T18:00:53.505Z,6.20
2023-04-15T18:03:21.065Z,6.10
2023-04-15T18:05:48.514Z,6.10
2023-04-15T18:08:15.819Z,6.20
2023-04-15T18:10:43.029Z,6.20
2023-04-15T18:13:10.271Z,6.00
2023-04-15T18:15:37.763Z,6.00
2023-04-15T18:18:05.291Z,5.90
2023-04-15T18:20:33.709Z,5.90
2023-04-15T18:23:01.003Z,5.90
2023-04-15T18:25:29.580Z,5.90
2023-04-15T18:27:57.236Z,5.90
2023-04-15T18:30:24.701Z,6.00
2023-04-15T18:32:52.161Z,6.00
2023-04-15T18:35:20.977Z,5.90
2023-04-15T18:37:48.229Z,5.90
2023-04-15T18:40:16.480Z,5.90
2023-04-15T18:42:43.646Z,5.80
2023-04-15T18:45:11.960Z,5.70
2023-04-15T18:47:39.397Z,5.80
2023-04-15T18:50:07.808Z,5.80
2023-04-15T18:52:35.354Z,5.90
2023-04-15T18:55:05.908Z,5.90
2023-04-15T18:57:35.854Z,5.80
2023-04-15T19:00:04.789Z,5.80
2023-04-15T19:02:32.425Z,5.80
2023-04-15T19:05:01.974Z,5.80
2023-04-15T19:07:30.264Z,5.80
2023-04-15T19:09:57.883Z,5.70
2023-04-15T19:12:25.098Z,5.70
2023-04-15T19:14:52.523Z,5.70
2023-04-15T19:17:20.146Z,5.70
2023-04-15T19:19:47.552Z,5.80
2023-04-15T19:22:15.316Z,5.90
2023-04-15T19:24:43.804Z,5.80
2023-04-15T19:27:11.472Z,5.80
2023-04-15T19:29:38.942Z,5.80
2023-04-15T19:32:06.350Z,5.80
2023-04-15T19:34:33.905Z,5.60
2023-04-15T19:37:01.478Z,5.60
2023-04-15T19:39:29.053Z,5.70
2023-04-15T19:41:56.816Z,5.90
2023-04-15T19:44:24.196Z,5.80
2023-04-15T19:46:53.356Z,6.00
2023-04-15T19:49:22.232Z,5.80
2023-04-15T19:51:52.520Z,5.70
2023-04-15T19:54:19.985Z,5.70
2023-04-15T19:56:47.352Z,5.80
2023-04-15T19:59:14.992Z,5.70
2023-04-15T20:01:42.254Z,5.80
2023-04-15T20:04:10.535Z,5.80
2023-04-15T20:06:38.036Z,5.70
2023-04-15T20:09:06.042Z,5.70
2023-04-15T20:12:44.898Z,5.70
2023-04-15T20:14:21.583Z,5.80
2023-04-15T20:16:48.875Z,5.60
2023-04-15T20:19:16.515Z,5.60
2023-04-15T20:21:44.071Z,5.70
2023-04-15T20:24:11.289Z,5.70
2023-04-15T20:26:38.616Z,5.80
2023-04-15T20:29:06.404Z,5.80
2023-04-15T20:31:34.334Z,5.60
2023-04-15T20:34:01.680Z,5.70
2023-04-15T20:36:28.910Z,5.50
2023-04-15T20:38:56.505Z,5.70
2023-04-15T20:41:23.794Z,5.70
2023-04-15T20:43:51.341Z,7.20
2023-04-15T20:46:21.509Z,5.70
2023-04-15T20:48:49.357Z,5.60
2023-04-15T20:51:16.948Z,5.60
2023-04-15T20:53:44.249Z,5.90
2023-04-15T20:56:12.133Z,5.80
2023-04-15T20:58:39.731Z,5.80
2023-04-15T21:01:07.158Z,5.80
2023-04-15T21:03:34.920Z,5.80
2023-04-15T21:06:02.484Z,5.70
2023-04-15T21:08:30.742Z,5.70
2023-04-15T21:10:58.106Z,5.70
2023-04-15T21:13:25.544Z,5.60
2023-04-15T21:15:54.456Z,5.60
2023-04-15T21:18:22.577Z,5.60
2023-04-15T21:21:02.558Z,5.50
2023-04-15T21:23:29.993Z,5.40
2023-04-15T21:25:57.931Z,5.50
2023-04-15T21:28:28.258Z,5.50
2023-04-15T21:30:56.278Z,5.60
2023-04-15T21:33:23.952Z,5.50
2023-04-15T21:35:51.623Z,5.60
2023-04-15T21:38:19.215Z,5.60
2023-04-15T21:40:49.640Z,5.50
2023-04-15T21:43:17.259Z,5.50
2023-04-15T21:46:20.728Z,5.50
2023-04-15T21:48:32.373Z,5.60
2023-04-15T21:51:00.621Z,5.50
2023-04-15T21:53:28.110Z,5.50
2023-04-15T21:55:55.311Z,5.50
2023-04-15T21:58:22.794Z,5.60
2023-04-15T22:00:50.268Z,5.60
2023-04-15T22:03:17.688Z,5.60
2023-04-15T22:05:48.222Z,5.50
2023-04-15T22:08:15.829Z,5.40
2023-04-15T22:10:43.332Z,5.40
2023-04-15T22:13:11.459Z,5.40
2023-04-15T22:15:38.796Z,5.50
2023-04-15T22:18:06.420Z,5.40
2023-04-15T22:20:38.868Z,5.50
2023-04-15T22:23:09.214Z,5.60
2023-04-15T22:25:37.599Z,5.60
2023-04-15T22:28:07.673Z,5.50
2023-04-15T22:30:44.056Z,5.50
2023-04-15T22:33:11.660Z,5.50
2023-04-15T22:35:38.981Z,5.60
2023-04-15T22:38:06.701Z,5.70
2023-04-15T22:40:34.379Z,5.70
2023-04-15T22:43:01.734Z,5.60
2023-04-15T22:45:28.954Z,5.60
2023-04-15T22:47:56.499Z,5.60
2023-04-15T22:50:23.735Z,5.70
2023-04-15T22:52:51.192Z,5.80
2023-04-15T22:55:18.865Z,5.80
2023-04-15T22:57:46.035Z,5.80
2023-04-15T23:00:13.740Z,5.60
2023-04-15T23:02:41.542Z,5.60
2023-04-15T23:05:13.117Z,5.50
2023-04-15T23:07:40.804Z,5.40
2023-04-15T23:10:08.583Z,5.30
2023-04-15T23:12:35.907Z,5.30
2023-04-15T23:15:04.101Z,5.30
2023-04-15T23:17:31.441Z,5.30
2023-04-15T23:19:58.723Z,5.40
2023-04-15T23:22:26.312Z,5.50
2023-04-15T23:24:53.695Z,5.50
2023-04-15T23:27:21.179Z,5.60
2023-04-15T23:29:48.706Z,5.60
2023-04-15T23:32:16.171Z,5.60
2023-04-15T23:34:43.743Z,5.60
2023-04-15T23:37:11.125Z,5.60
2023-04-15T23:39:38.364Z,5.60
2023-04-15T23:42:06.064Z,5.60
2023-04-15T23:44:33.499Z,5.50
2023-04-15T23:47:00.886Z,5.60
2023-04-15T23:49:28.425Z,5.70
2023-04-15T23:51:56.332Z,5.60
2023-04-15T23:54:23.868Z,5.70
2023-04-15T23:56:51.534Z,5.80
2023-04-15T23:59:18.960Z,5.90
